Time;durP1;ratioP1;P1;durP2;ratioP2;P2;SDS_P1;SDS_P2;PMS_P1;PMS_P2;Temp;Humidity;BMP_temperature;BMP_pressure;BME280_temperature;BME280_humidity;BME280_pressure;Samples;Min_cycle;Max_cycle;Signal;HPM_P1;HPM_P2
2023/03/10 00:00:33;;;;;;;;;4.50;3.25;;;;;12.15;100.00;98953.38;4935717;28;49360;-68
2023/03/10 00:02:59;;;;;;;;;4.00;1.75;;;;;12.09;100.00;98916.69;4928707;28;49800;-69
2023/03/10 00:05:24;;;;;;;;;3.00;1.25;;;;;11.99;100.00;98905.41;4931153;28;52237;-72
2023/03/10 00:07:50;;;;;;;;;3.75;3.50;;;;;12.03;100.00;98898.34;4935205;28;50350;-70
2023/03/10 00:10:16;;;;;;;;;3.00;1.50;;;;;12.23;100.00;98932.25;4930257;28;49818;-78
2023/03/10 00:12:42;;;;;;;;;3.00;2.25;;;;;12.06;100.00;98915.81;4922336;28;49539;-80
2023/03/10 00:15:09;;;;;;;;;5.75;3.50;;;;;11.93;100.00;98871.31;4934823;28;50412;-68
2023/03/10 00:17:35;;;;;;;;;1.50;1.25;;;;;12.03;100.00;98879.94;4938970;28;50869;-71
2023/03/10 00:20:00;;;;;;;;;4.00;3.25;;;;;12.04;100.00;98887.78;4938601;28;49248;-69
2023/03/10 00:22:26;;;;;;;;;10.00;5.50;;;;;11.88;100.00;98856.50;4940513;28;49593;-68
2023/03/10 00:24:51;;;;;;;;;9.75;6.75;;;;;11.71;100.00;98817.28;4933839;28;49830;-69
2023/03/10 00:27:16;;;;;;;;;8.25;5.00;;;;;12.04;100.00;98872.00;4918428;28;61868;-69
2023/03/10 00:29:42;;;;;;;;;11.75;4.50;;;;;12.10;100.00;98872.84;4914179;28;50015;-75
2023/03/10 00:32:07;;;;;;;;;3.00;1.25;;;;;12.02;100.00;98860.66;4932623;28;49795;-68
2023/03/10 00:34:32;;;;;;;;;9.00;5.00;;;;;12.02;100.00;98852.75;4931348;28;49797;-69
2023/03/10 00:36:58;;;;;;;;;3.75;3.25;;;;;12.14;100.00;98864.84;4932131;28;57078;-69
2023/03/10 00:39:23;;;;;;;;;7.75;3.00;;;;;11.89;100.00;98830.19;4947606;28;55106;-72
2023/03/10 00:41:48;;;;;;;;;6.75;4.00;;;;;11.78;100.00;98802.31;4932956;28;49804;-78
2023/03/10 00:44:14;;;;;;;;;6.00;4.50;;;;;12.12;100.00;98850.00;4932987;28;49908;-73
2023/03/10 00:46:39;;;;;;;;;7.50;3.75;;;;;11.97;100.00;98830.09;4931448;28;51537;-69
2023/03/10 00:49:07;;;;;;;;;8.25;6.25;;;;;11.98;100.00;98832.69;4932942;28;49845;-73
2023/03/10 00:51:33;;;;;;;;;9.50;4.00;;;;;11.96;100.00;98829.19;4933076;28;49636;-68
2023/03/10 00:54:02;;;;;;;;;9.50;3.50;;;;;12.04;100.00;98842.22;4932739;28;49982;-69
2023/03/10 00:56:29;;;;;;;;;3.00;2.50;;;;;12.16;100.00;98868.34;4932344;28;49763;-71
2023/03/10 00:58:58;;;;;;;;;3.00;2.75;;;;;12.17;100.00;98866.59;4932883;28;50075;-70
2023/03/10 01:01:27;;;;;;;;;4.50;3.00;;;;;11.81;100.00;98818.91;4932791;28;49799;-71
2023/03/10 01:03:54;;;;;;;;;0.75;0.00;;;;;12.02;100.00;98859.78;4933189;28;49644;-68
2023/03/10 01:06:21;;;;;;;;;2.00;2.00;;;;;11.93;100.00;98854.66;4932902;28;50930;-75
2023/03/10 01:08:46;;;;;;;;;4.00;2.75;;;;;11.76;100.00;98825.97;4932403;28;49748;-69
2023/03/10 01:11:16;;;;;;;;;6.50;1.50;;;;;11.83;100.00;98848.69;4932487;28;49582;-68
2023/03/10 01:13:43;;;;;;;;;2.50;2.00;;;;;11.77;100.00;98848.72;4935489;28;49791;-73
2023/03/10 01:16:08;;;;;;;;;1.25;1.25;;;;;11.76;100.00;98860.13;4935089;28;51230;-71
2023/03/10 01:18:33;;;;;;;;;2.00;1.50;;;;;11.51;100.00;98827.22;4935131;28;49762;-71
2023/03/10 01:20:59;;;;;;;;;2.75;1.25;;;;;11.50;100.00;98833.38;4935158;28;49797;-70
2023/03/10 01:23:25;;;;;;;;;2.75;2.75;;;;;11.43;100.00;98819.44;4934614;28;58890;-71
2023/03/10 01:25:51;;;;;;;;;7.25;0.75;;;;;11.42;100.00;98821.19;4935162;28;50869;-74
2023/03/10 01:28:16;;;;;;;;;9.25;8.00;;;;;11.31;100.00;98812.59;4949633;28;49885;-75
2023/03/10 01:30:42;;;;;;;;;0.25;0.25;;;;;11.34;100.00;98828.31;4935207;28;49724;-71
2023/03/10 01:33:09;;;;;;;;;0.00;0.00;;;;;11.16;100.00;98810.16;4935150;28;49823;-68
2023/03/10 01:35:34;;;;;;;;;1.00;1.00;;;;;11.26;100.00;98842.44;4935441;28;51008;-70
2023/03/10 01:38:00;;;;;;;;;2.00;0.00;;;;;11.03;100.00;98824.34;4935563;28;49685;-68
2023/03/10 01:40:26;;;;;;;;;0.00;0.00;;;;;11.02;100.00;98815.59;4935431;28;50185;-69
2023/03/10 01:43:26;;;;;;;;;5.50;2.00;;;;;10.84;100.00;98806.16;4935231;28;49794;-68
2023/03/10 01:45:52;;;;;;;;;2.00;0.25;;;;;10.93;100.00;98822.72;4927967;28;50977;-70
2023/03/10 01:48:19;;;;;;;;;3.75;1.00;;;;;10.83;100.00;98822.81;4935080;28;49803;-69
2023/03/10 01:50:50;;;;;;;;;2.00;0.00;;;;;10.63;100.00;98801.16;4934733;28;50000;-69
2023/03/10 01:53:18;;;;;;;;;1.25;1.00;;;;;10.67;100.00;98797.59;4935796;28;49843;-73
2023/03/10 01:55:49;;;;;;;;;4.00;2.00;;;;;10.64;100.00;98787.16;4934712;28;51135;-74
2023/03/10 01:58:18;;;;;;;;;2.00;2.00;;;;;10.60;100.00;98764.44;4935661;28;49973;-70
2023/03/10 02:00:44;;;;;;;;;2.75;0.25;;;;;10.76;100.00;98792.25;4917555;28;49741;-70
2023/03/10 02:03:12;;;;;;;;;1.50;1.50;;;;;10.92;100.00;98800.84;4935600;28;49794;-75
2023/03/10 02:05:44;;;;;;;;;2.00;2.00;;;;;10.83;100.00;98788.69;4917569;28;52027;-74
2023/03/10 02:08:10;;;;;;;;;1.00;1.00;;;;;10.84;100.00;98769.41;4935181;28;49889;-72
2023/03/10 02:10:36;;;;;;;;;5.50;3.00;;;;;11.07;100.00;98784.00;4933302;28;49699;-70
2023/03/10 02:13:02;;;;;;;;;2.00;0.25;;;;;10.88;100.00;98752.72;4935060;28;49834;-69
2023/03/10 02:15:28;;;;;;;;;2.00;2.00;;;;;10.88;100.00;98752.72;4934844;28;49831;-72
2023/03/10 02:17:53;;;;;;;;;7.25;2.25;;;;;10.85;100.00;98752.78;4931476;28;49918;-69
2023/03/10 02:20:34;;;;;;;;;4.75;1.75;;;;;11.01;100.00;98779.72;4934918;28;50079;-71
2023/03/10 02:23:00;;;;;;;;;2.50;1.00;;;;;10.95;100.00;98758.78;4934325;28;49590;-68
2023/03/10 02:25:41;;;;;;;;;2.25;1.50;;;;;11.02;100.00;98770.94;4932932;28;51301;-68
2023/03/10 02:28:07;;;;;;;;;3.50;3.50;;;;;10.78;100.00;98726.63;4949618;28;49869;-71
2023/03/10 02:30:37;;;;;;;;;2.00;2.00;;;;;11.07;100.00;98774.38;4934438;28;49843;-69
2023/03/10 02:33:11;;;;;;;;;2.50;1.75;;;;;11.10;100.00;98776.13;4934848;28;49745;-71
2023/03/10 02:35:37;;;;;;;;;3.75;2.75;;;;;11.02;100.00;98743.84;4922698;28;50830;-69
2023/03/10 02:38:03;;;;;;;;;1.25;1.25;;;;;11.05;100.00;98752.53;4935192;28;49803;-73
2023/03/10 02:40:39;;;;;;;;;7.00;2.00;;;;;11.15;100.00;98748.88;4935288;28;49855;-68
2023/03/10 02:43:40;;;;;;;;;4.25;2.00;;;;;11.20;100.00;98764.59;4934784;28;49985;-71
2023/03/10 02:46:07;;;;;;;;;3.00;2.00;;;;;11.13;100.00;98749.81;4836863;29;50441;-73
2023/03/10 02:48:35;;;;;;;;;5.25;1.25;;;;;11.09;100.00;98732.34;4914095;28;50350;-71
2023/03/10 02:51:03;;;;;;;;;4.00;1.75;;;;;11.20;100.00;98745.34;4933627;28;49783;-71
2023/03/10 02:53:29;;;;;;;;;9.50;3.00;;;;;11.02;100.00;98701.81;4934092;28;49842;-68
2023/03/10 02:55:55;;;;;;;;;3.00;1.00;;;;;11.13;100.00;98726.16;4934021;28;50671;-72
2023/03/10 02:58:22;;;;;;;;;1.50;0.75;;;;;10.66;100.00;98638.44;4948905;28;49923;-71
2023/03/10 03:00:48;;;;;;;;;2.00;2.00;;;;;11.15;100.00;98725.25;4933785;28;49771;-68
2023/03/10 03:03:16;;;;;;;;;2.75;2.75;;;;;10.72;100.00;98645.38;4934026;28;50069;-69
2023/03/10 03:05:41;;;;;;;;;3.00;3.00;;;;;11.24;100.00;98733.91;4931913;28;51310;-71
2023/03/10 03:08:08;;;;;;;;;2.50;1.75;;;;;11.18;100.00;98732.22;4933976;28;49825;-75
2023/03/10 03:10:34;;;;;;;;;2.00;1.50;;;;;11.17;100.00;98723.47;4933675;28;49833;-71
2023/03/10 03:12:59;;;;;;;;;2.00;2.00;;;;;11.16;100.00;98721.72;4933642;28;49598;-73
2023/03/10 03:15:26;;;;;;;;;2.25;2.00;;;;;11.16;100.00;98716.47;4933108;28;55143;-69
2023/03/10 03:17:53;;;;;;;;;2.25;0.50;;;;;11.17;100.00;98720.84;4933775;28;49806;-72
2023/03/10 03:20:20;;;;;;;;;3.00;3.00;;;;;11.17;100.00;98727.84;4933386;28;49770;-72
2023/03/10 03:22:46;;;;;;;;;2.50;1.00;;;;;11.09;100.00;98706.94;4933393;28;49699;-68
2023/03/10 03:25:14;;;;;;;;;1.00;1.00;;;;;11.00;100.00;98695.69;4931958;28;49814;-72
2023/03/10 03:27:40;;;;;;;;;4.00;1.25;;;;;11.05;100.00;98713.13;4933495;28;49794;-73
2023/03/10 03:30:10;;;;;;;;;2.50;1.25;;;;;11.07;100.00;98721.00;4933015;28;49761;-70
2023/03/10 03:32:36;;;;;;;;;1.25;1.25;;;;;11.01;100.00;98716.72;4931506;28;50122;-73
2023/03/10 03:35:03;;;;;;;;;4.25;1.25;;;;;11.11;100.00;98723.56;4932706;28;51029;-72
2023/03/10 03:37:28;;;;;;;;;1.50;0.50;;;;;10.60;100.00;98646.38;4931748;28;49994;-77
2023/03/10 03:39:53;;;;;;;;;2.75;1.00;;;;;10.97;100.00;98712.38;4933508;28;56639;-71
2023/03/10 03:42:19;;;;;;;;;3.00;0.50;;;;;11.03;100.00;98725.44;4934147;28;49720;-76
2023/03/10 03:44:44;;;;;;;;;5.50;0.50;;;;;10.68;100.00;98678.63;4932422;28;51920;-74
2023/03/10 03:47:10;;;;;;;;;2.00;2.00;;;;;10.72;100.00;98703.97;4933703;28;49589;-73
2023/03/10 03:49:37;;;;;;;;;1.50;1.25;;;;;10.96;100.00;98768.41;4933357;28;49732;-76
2023/03/10 03:52:03;;;;;;;;;2.25;1.50;;;;;10.80;100.00;98743.22;4920776;28;49754;-68
2023/03/10 03:54:28;;;;;;;;;2.00;1.00;;;;;10.79;100.00;98746.72;4933385;28;50910;-68
2023/03/10 03:56:53;;;;;;;;;3.25;1.75;;;;;10.74;100.00;98744.19;4932501;28;65656;-68
2023/03/10 03:59:19;;;;;;;;;1.75;0.25;;;;;10.64;100.00;98725.94;4947724;28;58966;-71
2023/03/10 04:01:44;;;;;;;;;2.25;1.25;;;;;10.86;100.00;98770.25;4933120;28;55203;-71
2023/03/10 04:04:09;;;;;;;;;4.00;2.75;;;;;10.87;100.00;98771.13;4932855;28;53901;-69
2023/03/10 04:06:35;;;;;;;;;4.00;2.25;;;;;10.82;100.00;98758.09;4932810;28;49810;-71
2023/03/10 04:09:00;;;;;;;;;1.00;1.00;;;;;10.69;100.00;98743.34;4932644;28;49624;-70
2023/03/10 04:11:25;;;;;;;;;1.00;0.25;;;;;10.70;100.00;98721.47;4932822;28;50090;-68
2023/03/10 04:13:51;;;;;;;;;3.50;1.50;;;;;10.69;100.00;98732.84;4932526;28;49763;-68
2023/03/10 04:16:16;;;;;;;;;6.75;3.00;;;;;10.69;100.00;98724.97;4932642;28;49768;-68
2023/03/10 04:18:41;;;;;;;;;4.50;2.00;;;;;10.64;100.00;98720.69;4932446;28;49839;-70
2023/03/10 04:21:07;;;;;;;;;1.25;1.25;;;;;10.74;100.00;98730.19;4932882;28;49694;-69
2023/03/10 04:23:32;;;;;;;;;8.50;3.00;;;;;10.65;100.00;98704.91;4914741;28;60031;-68
2023/03/10 04:25:57;;;;;;;;;5.50;2.25;;;;;10.86;100.00;98741.38;4932792;28;56464;-71
2023/03/10 04:28:23;;;;;;;;;2.00;1.75;;;;;10.83;100.00;98749.31;4932971;28;54289;-73
2023/03/10 04:30:48;;;;;;;;;3.00;1.25;;;;;10.70;100.00;98715.34;4915729;28;49708;-76
2023/03/10 04:33:13;;;;;;;;;2.00;2.00;;;;;10.65;100.00;98704.91;4932788;28;49719;-70
2023/03/10 04:35:46;;;;;;;;;3.75;2.00;;;;;10.68;100.00;98707.50;4933340;28;49863;-75
2023/03/10 04:38:12;;;;;;;;;2.25;2.25;;;;;10.70;100.00;98705.72;4931670;28;49816;-75
2023/03/10 04:40:37;;;;;;;;;2.00;2.00;;;;;10.87;100.00;98747.50;4932857;28;49706;-74
2023/03/10 04:43:03;;;;;;;;;3.50;3.00;;;;;10.80;100.00;98735.34;4927555;28;50019;-69
2023/03/10 04:45:29;;;;;;;;;3.00;1.25;;;;;10.88;100.00;98749.25;4928279;28;49937;-72
2023/03/10 04:47:54;;;;;;;;;2.25;2.00;;;;;10.83;100.00;98733.56;4920799;28;50261;-71
2023/03/10 04:50:19;;;;;;;;;4.50;1.00;;;;;10.81;100.00;98742.34;4919255;28;49816;-68
2023/03/10 04:52:45;;;;;;;;;3.50;2.50;;;;;10.82;100.00;98728.34;4920358;28;50004;-68
2023/03/10 04:55:12;;;;;;;;;2.00;2.00;;;;;10.83;100.00;98770.31;4919116;28;49934;-72
2023/03/10 04:57:38;;;;;;;;;0.75;0.00;;;;;10.89;100.00;98762.34;4920837;28;50100;-75
2023/03/10 05:00:06;;;;;;;;;2.25;0.50;;;;;10.79;100.00;98742.34;4922572;28;49871;-70
2023/03/10 05:02:32;;;;;;;;;0.25;0.25;;;;;10.74;100.00;98749.44;4921070;28;50752;-74
2023/03/10 05:04:57;;;;;;;;;2.50;1.25;;;;;10.65;100.00;98741.66;4917747;28;49713;-74
2023/03/10 05:07:23;;;;;;;;;1.25;0.25;;;;;10.45;100.00;98712.16;4918573;28;62102;-69
2023/03/10 05:09:48;;;;;;;;;0.00;0.00;;;;;10.61;100.00;98742.56;4902787;28;50003;-80
2023/03/10 05:12:14;;;;;;;;;1.00;1.00;;;;;10.67;100.00;98741.63;4919680;28;51180;-76
2023/03/10 05:14:39;;;;;;;;;0.75;0.00;;;;;10.69;100.00;98760.84;4918066;28;49768;-72
2023/03/10 05:17:05;;;;;;;;;0.50;0.50;;;;;10.62;100.00;98759.22;4922078;28;49772;-77
2023/03/10 05:19:33;;;;;;;;;0.50;0.50;;;;;10.64;100.00;98771.41;4920383;28;51004;-73
2023/03/10 05:21:59;;;;;;;;;1.00;1.00;;;;;10.64;100.00;98753.03;4920608;28;50992;-74
2023/03/10 05:24:24;;;;;;;;;2.00;0.50;;;;;10.55;100.00;98758.41;4921752;28;49760;-74
2023/03/10 05:26:49;;;;;;;;;0.00;0.00;;;;;10.64;100.00;98768.78;4918420;28;50184;-76
2023/03/10 05:29:15;;;;;;;;;1.00;1.00;;;;;10.51;100.00;98751.44;4920014;28;49981;-68
2023/03/10 05:31:40;;;;;;;;;1.00;1.00;;;;;10.60;100.00;98774.94;4919424;28;56537;-68
2023/03/10 05:34:06;;;;;;;;;0.00;0.00;;;;;10.62;100.00;98781.06;4918413;28;49796;-74
2023/03/10 05:39:08;;;;;;;;;1.00;0.00;;;;;10.31;100.00;98728.91;5174182;23;49753;-74
2023/03/10 05:41:35;;;;;;;;;0.00;0.00;;;;;10.55;100.00;98798.63;4934065;28;50196;-72
2023/03/10 05:44:00;;;;;;;;;0.50;0.50;;;;;10.52;100.00;98801.28;4936629;28;49792;-73
2023/03/10 05:46:26;;;;;;;;;2.75;0.50;;;;;10.49;100.00;98790.78;4916142;28;49779;-75
2023/03/10 05:48:51;;;;;;;;;0.50;0.50;;;;;10.24;100.00;98755.22;4933737;28;49733;-72
2023/03/10 05:51:17;;;;;;;;;0.00;0.00;;;;;10.44;100.00;98783.88;4933351;28;51846;-73
2023/03/10 05:53:42;;;;;;;;;0.50;0.50;;;;;10.22;100.00;98756.97;4935987;28;49870;-72
2023/03/10 05:56:11;;;;;;;;;0.00;0.00;;;;;10.35;100.00;98797.94;4933406;28;50001;-73
2023/03/10 05:58:37;;;;;;;;;0.50;0.50;;;;;10.36;100.00;98777.84;4933521;28;50100;-76
2023/03/10 06:01:03;;;;;;;;;0.75;0.75;;;;;9.89;100.00;98714.44;4936284;28;50074;-74
2023/03/10 06:03:29;;;;;;;;;0.00;0.00;;;;;8.95;100.00;98572.06;4933954;28;50221;-75
2023/03/10 06:05:58;;;;;;;;;0.00;0.00;;;;;9.73;100.00;98689.25;4933221;28;49745;-74
2023/03/10 06:08:26;;;;;;;;;0.00;0.00;;;;;10.12;100.00;98758.78;4933729;28;49726;-74
2023/03/10 06:10:52;;;;;;;;;1.00;1.00;;;;;8.70;100.00;98526.06;4935390;28;50507;-75
2023/03/10 06:13:19;;;;;;;;;0.00;0.00;;;;;10.08;100.00;98783.31;4945921;28;49862;-76
2023/03/10 06:15:52;;;;;;;;;1.00;0.50;;;;;9.85;100.00;98748.56;4957135;28;49865;-76
2023/03/10 06:18:18;;;;;;;;;0.00;0.00;;;;;10.23;100.00;98812.06;4941183;28;49773;-71
2023/03/10 06:20:44;;;;;;;;;0.75;0.00;;;;;10.07;100.00;98788.56;4945859;28;49907;-73
2023/03/10 06:23:10;;;;;;;;;1.00;0.00;;;;;10.04;100.00;98792.09;4951641;28;49892;-73
2023/03/10 06:25:36;;;;;;;;;0.00;0.00;;;;;10.15;100.00;98820.84;4951900;28;49801;-72
2023/03/10 06:28:02;;;;;;;;;0.00;0.00;;;;;10.02;100.00;98817.41;4942660;28;49921;-74
2023/03/10 06:30:27;;;;;;;;;0.50;0.50;;;;;9.92;100.00;98810.50;4948977;28;49822;-74
2023/03/10 06:32:53;;;;;;;;;0.00;0.00;;;;;9.53;100.00;98757.53;4935162;28;49691;-74
2023/03/10 06:35:18;;;;;;;;;0.00;0.00;;;;;9.91;100.00;98827.13;4935408;28;49737;-74
2023/03/10 06:37:44;;;;;;;;;0.00;0.00;;;;;9.86;100.00;98827.16;4952447;28;49739;-71
2023/03/10 06:40:12;;;;;;;;;0.00;0.00;;;;;10.03;100.00;98843.63;4952727;28;52438;-74
2023/03/10 06:42:40;;;;;;;;;0.00;0.00;;;;;9.74;100.00;98804.50;4946242;28;49927;-77
2023/03/10 06:45:12;;;;;;;;;0.00;0.00;;;;;9.68;100.00;98796.72;4935344;28;49696;-80
2023/03/10 06:47:37;;;;;;;;;0.00;0.00;;;;;10.09;100.00;98858.44;4917428;28;50100;-82
2023/03/10 06:50:04;;;;;;;;;0.00;0.00;;;;;10.09;100.00;98861.06;4942248;28;54578;-73
2023/03/10 06:52:32;;;;;;;;;0.00;0.00;;;;;10.02;100.00;98855.00;4953585;28;49861;-72
2023/03/10 06:54:57;;;;;;;;;0.00;0.00;;;;;10.11;100.00;98869.78;4952857;28;49975;-71
2023/03/10 06:57:22;;;;;;;;;0.00;0.00;;;;;10.03;100.00;98854.09;4952316;28;49937;-72
2023/03/10 06:59:48;;;;;;;;;0.00;0.00;;;;;10.11;100.00;98859.28;4951935;28;49874;-76
2023/03/10 07:02:13;;;;;;;;;2.00;1.00;;;;;10.23;100.00;98889.81;4945286;28;49983;-75
2023/03/10 07:04:39;;;;;;;;;0.00;0.00;;;;;10.14;100.00;98896.00;4934370;28;50049;-79
2023/03/10 07:07:04;;;;;;;;;0.75;0.00;;;;;10.22;100.00;98903.81;4929942;28;49956;-73
2023/03/10 07:09:29;;;;;;;;;2.00;0.00;;;;;9.78;100.00;98835.97;4951228;28;49678;-76
2023/03/10 07:11:55;;;;;;;;;2.00;0.00;;;;;10.03;100.00;98906.53;4952760;28;49795;-75
2023/03/10 07:14:20;;;;;;;;;0.00;0.00;;;;;10.15;100.00;98937.06;4927309;28;49833;-70
2023/03/10 07:16:46;;;;;;;;;0.00;0.00;;;;;10.19;100.00;98932.66;4933823;28;50020;-72
2023/03/10 07:19:11;;;;;;;;;0.00;0.00;;;;;10.11;100.00;98919.59;4933585;28;49814;-71
2023/03/10 07:21:37;;;;;;;;;0.00;0.00;;;;;10.23;100.00;98948.41;4933329;28;49772;-74
2023/03/10 07:24:02;;;;;;;;;0.00;0.00;;;;;10.00;100.00;98922.28;4951526;28;50081;-76
2023/03/10 07:26:28;;;;;;;;;0.00;0.00;;;;;10.21;100.00;98975.47;4948044;28;49562;-73
2023/03/10 07:28:53;;;;;;;;;0.00;0.00;;;;;10.27;100.00;98983.34;4931562;28;62415;-73
2023/03/10 07:31:19;;;;;;;;;0.00;0.00;;;;;9.98;100.00;98928.44;4933148;28;49891;-70
2023/03/10 07:33:44;;;;;;;;;0.00;0.00;;;;;9.91;100.00;98917.09;4920525;28;49675;-72
2023/03/10 07:36:12;;;;;;;;;0.00;0.00;;;;;10.12;100.00;98950.19;4951791;28;49743;-72
2023/03/10 07:38:38;;;;;;;;;0.00;0.00;;;;;10.00;100.00;98942.41;4952420;28;50856;-69
2023/03/10 07:41:09;;;;;;;;;1.00;1.00;;;;;10.37;100.00;98995.53;4931274;28;50139;-72
2023/03/10 07:43:34;;;;;;;;;0.00;0.00;;;;;10.04;100.00;98938.91;4940827;28;49905;-72
2023/03/10 07:46:06;;;;;;;;;0.00;0.00;;;;;9.96;100.00;98928.44;4932513;28;49755;-71
2023/03/10 07:48:32;;;;;;;;;0.25;0.00;;;;;10.25;100.00;98980.75;4950092;28;50747;-71
2023/03/10 07:50:58;;;;;;;;;0.00;0.00;;;;;10.46;100.00;99040.06;4951155;28;49965;-68
2023/03/10 07:53:25;;;;;;;;;0.00;0.00;;;;;10.55;100.00;99033.88;4947711;28;49850;-68
2023/03/10 07:55:50;;;;;;;;;0.00;0.00;;;;;10.56;100.00;99056.63;4933354;28;50154;-68
2023/03/10 07:58:15;;;;;;;;;0.25;0.00;;;;;10.07;100.00;98969.44;4932812;28;49851;-67
2023/03/10 08:00:41;;;;;;;;;0.00;0.00;;;;;10.67;100.00;99065.28;4932937;28;49796;-76
2023/03/10 08:03:06;;;;;;;;;0.00;0.00;;;;;10.70;100.00;99062.63;4932663;28;49741;-68
2023/03/10 08:05:32;;;;;;;;;0.00;0.00;;;;;10.57;100.00;99043.47;4933130;28;49818;-74
2023/03/10 08:07:58;;;;;;;;;0.75;0.75;;;;;10.68;100.00;99074.03;4932653;28;50403;-70
2023/03/10 08:10:23;;;;;;;;;0.00;0.00;;;;;10.70;100.00;99072.25;4933039;28;50031;-74
2023/03/10 08:12:49;;;;;;;;;0.00;0.00;;;;;10.71;100.00;99095.88;4948010;28;50014;-69
2023/03/10 08:15:15;;;;;;;;;1.00;0.00;;;;;10.81;100.00;99109.81;4944428;28;49851;-71
2023/03/10 08:17:41;;;;;;;;;0.00;0.00;;;;;10.69;100.00;99120.38;4933666;28;51730;-71
2023/03/10 08:20:07;;;;;;;;;0.00;0.00;;;;;10.72;100.00;99107.25;4941947;28;49855;-75
2023/03/10 08:22:32;;;;;;;;;0.00;0.00;;;;;10.65;100.00;99105.53;4950628;28;49848;-82
2023/03/10 08:24:58;;;;;;;;;2.25;0.00;;;;;10.74;100.00;99153.59;4946017;28;50111;-77
2023/03/10 08:27:24;;;;;;;;;0.00;0.00;;;;;10.56;100.00;99124.84;4951845;28;51129;-75
2023/03/10 08:29:50;;;;;;;;;0.00;0.00;;;;;10.60;100.00;99153.66;4945064;28;49705;-70
2023/03/10 08:32:15;;;;;;;;;0.00;0.00;;;;;10.54;100.00;99131.84;4933283;28;49851;-68
2023/03/10 08:34:41;;;;;;;;;0.00;0.00;;;;;10.47;100.00;99138.00;4932980;28;49721;-65
2023/03/10 08:37:07;;;;;;;;;0.00;0.00;;;;;10.70;100.00;99177.22;4931892;28;50034;-65
2023/03/10 08:39:33;;;;;;;;;0.00;0.00;;;;;10.86;100.00;99189.41;4932631;28;49896;-70
2023/03/10 08:41:58;;;;;;;;;0.00;0.00;;;;;10.85;100.00;99187.66;4925813;28;49888;-70
2023/03/10 08:44:23;;;;;;;;;0.00;0.00;;;;;10.98;100.00;99207.72;4932745;28;49572;-67
2023/03/10 08:46:49;;;;;;;;;0.00;0.00;;;;;10.67;100.00;99149.25;4932370;28;49744;-71
2023/03/10 08:49:16;;;;;;;;;0.00;0.00;;;;;11.02;100.00;99216.47;4932420;28;49715;-66
2023/03/10 08:51:43;;;;;;;;;0.00;0.00;;;;;10.99;100.00;99226.97;4932287;28;49784;-69
2023/03/10 08:54:10;;;;;;;;;0.00;0.00;;;;;10.81;100.00;99218.31;4932624;28;49742;-67
2023/03/10 08:56:36;;;;;;;;;0.75;0.00;;;;;10.82;100.00;99217.44;4932529;28;52377;-74
2023/03/10 08:59:01;;;;;;;;;0.00;0.00;;;;;10.74;100.00;99223.59;4938606;28;49551;-69
2023/03/10 09:01:29;;;;;;;;;0.00;0.00;;;;;10.80;100.00;99240.16;4949731;28;49751;-67
2023/03/10 09:03:55;;;;;;;;;0.00;0.00;;;;;10.69;100.00;99243.72;4933983;28;49617;-76
2023/03/10 09:06:20;;;;;;;;;0.00;0.00;;;;;10.75;100.00;99256.84;4950925;28;50948;-78
2023/03/10 09:08:49;;;;;;;;;0.00;0.00;;;;;10.56;100.00;99261.28;4933267;28;50097;-75
2023/03/10 09:11:18;;;;;;;;;0.00;0.00;;;;;10.52;100.00;99251.69;4932820;28;50041;-69
2023/03/10 09:13:43;;;;;;;;;0.00;0.00;;;;;10.43;100.00;99249.09;4950976;28;49862;-72
2023/03/10 09:16:09;;;;;;;;;0.00;0.00;;;;;10.43;100.00;99272.69;4950534;28;50704;-74
2023/03/10 09:18:34;;;;;;;;;0.00;0.00;;;;;10.60;100.00;99315.47;4946430;28;49975;-73
2023/03/10 09:21:00;;;;;;;;;0.00;0.00;;;;;10.45;100.00;99310.28;4932303;28;49669;-79
2023/03/10 09:23:26;;;;;;;;;0.50;0.00;;;;;10.39;100.00;99345.25;4937548;28;49630;-70
2023/03/10 09:25:51;;;;;;;;;4.00;1.00;;;;;10.25;100.00;99329.53;4938234;28;50487;-76
2023/03/10 09:28:16;;;;;;;;;0.00;0.00;;;;;10.16;100.00;99336.50;4924003;28;49826;-73
2023/03/10 09:30:42;;;;;;;;;0.00;0.00;;;;;10.06;100.00;99322.53;4950563;28;49684;-70
2023/03/10 09:33:15;;;;;;;;;0.00;0.00;;;;;10.32;100.00;99362.75;4943720;28;49637;-73
2023/03/10 09:35:40;;;;;;;;;0.00;0.00;;;;;10.13;100.00;99300.66;4945357;28;50785;-79
2023/03/10 09:38:05;;;;;;;;;0.25;0.25;;;;;10.30;100.00;99355.75;4950111;28;49853;-77
2023/03/10 09:40:32;;;;;;;;;1.00;1.00;;;;;10.33;100.00;99371.50;4937912;28;60461;-80
2023/03/10 09:43:07;;;;;;;;;0.50;0.50;;;;;10.05;100.00;99357.50;4937714;28;50167;-75
2023/03/10 09:45:41;;;;;;;;;0.00;0.00;;;;;10.21;100.00;99410.78;4939867;28;50806;-71
2023/03/10 09:48:19;;;;;;;;;0.00;0.00;;;;;10.14;100.00;99430.91;4941099;28;50057;-71
2023/03/10 09:50:46;;;;;;;;;0.50;0.50;;;;;10.06;100.00;99403.81;4935971;28;49712;-71
2023/03/10 09:53:30;;;;;;;;;1.00;1.00;;;;;10.00;100.00;99425.63;4915208;28;50031;-73
2023/03/10 09:55:56;;;;;;;;;1.00;0.75;;;;;9.89;100.00;99426.50;4935827;28;49732;-72
2023/03/10 09:58:31;;;;;;;;;0.75;0.75;;;;;9.95;100.00;99447.50;4953320;28;49734;-73
2023/03/10 10:00:58;;;;;;;;;2.00;0.00;;;;;9.80;100.00;99424.72;4950384;28;49847;-71
2023/03/10 10:03:34;;;;;;;;;0.75;0.50;;;;;9.80;100.00;99450.06;4940853;28;49892;-73
2023/03/10 10:06:02;;;;;;;;;0.00;0.00;;;;;9.71;100.00;99448.28;4948806;28;51148;-72
2023/03/10 10:08:33;;;;;;;;;0.75;0.75;;;;;9.90;100.00;99480.66;4955802;28;49609;-71
2023/03/10 10:11:00;;;;;;;;;1.00;1.00;;;;;9.93;100.00;99491.16;4961343;28;49894;-71
2023/03/10 10:13:29;;;;;;;;;3.00;1.00;;;;;9.75;100.00;99474.53;4946953;28;49706;-71
2023/03/10 10:16:09;;;;;;;;;1.75;1.75;;;;;9.63;100.00;99447.38;4946160;28;50666;-71
2023/03/10 10:18:42;;;;;;;;;1.00;0.00;;;;;9.88;100.00;99514.75;4957424;28;49910;-71
2023/03/10 10:21:13;;;;;;;;;1.50;0.50;;;;;9.93;100.00;99543.59;4970274;28;49205;-71
2023/03/10 10:23:53;;;;;;;;;0.00;0.00;;;;;9.72;100.00;99536.50;4948748;28;49763;-76
2023/03/10 10:26:23;;;;;;;;;0.50;0.50;;;;;9.90;100.00;99564.56;4953416;28;50350;-74
2023/03/10 10:28:54;;;;;;;;;1.00;1.00;;;;;9.99;100.00;99588.19;4938678;28;50525;-68
2023/03/10 10:31:22;;;;;;;;;0.75;0.75;;;;;9.97;100.00;99530.50;4950960;28;49702;-71
2023/03/10 10:33:52;;;;;;;;;0.00;0.00;;;;;10.07;100.00;99533.16;4935308;28;49511;-69
2023/03/10 10:36:18;;;;;;;;;1.75;0.50;;;;;10.19;100.00;99536.69;4958087;28;49575;-70
2023/03/10 10:38:48;;;;;;;;;0.00;0.00;;;;;10.16;100.00;99505.22;4950477;28;49476;-70
2023/03/10 10:41:20;;;;;;;;;0.00;0.00;;;;;10.39;100.00;99526.28;4949478;28;49483;-72
2023/03/10 10:43:47;;;;;;;;;1.00;1.00;;;;;9.99;100.00;99444.00;4952370;28;49499;-68
2023/03/10 10:46:16;;;;;;;;;1.00;1.00;;;;;10.75;100.00;99553.44;4953147;28;49465;-70
2023/03/10 10:48:44;;;;;;;;;0.25;0.25;;;;;10.83;100.00;99584.09;4965325;28;49631;-71
2023/03/10 10:51:27;;;;;;;;;0.25;0.25;;;;;10.72;100.00;99577.94;4950769;28;49409;-70
2023/03/10 10:53:57;;;;;;;;;1.50;1.50;;;;;10.79;100.00;99587.56;4945543;28;49582;-69
2023/03/10 10:56:24;;;;;;;;;0.25;0.25;;;;;10.66;100.00;99562.19;4933399;28;49776;-67
2023/03/10 10:59:04;;;;;;;;;0.00;0.00;;;;;10.70;100.00;99613.78;4936730;28;49829;-74
2023/03/10 11:01:52;;;;;;;;;3.75;0.25;;;;;10.15;100.00;99540.19;4933485;28;49736;-68
2023/03/10 11:04:18;;;;;;;;;1.00;1.00;;;;;10.51;100.00;99586.63;4933578;28;49925;-73
2023/03/10 11:06:44;;;;;;;;;1.00;0.00;;;;;10.58;100.00;99608.53;4932953;28;50011;-74
2023/03/10 11:09:13;;;;;;;;;5.75;2.25;;;;;10.55;100.00;99588.41;4933313;28;49990;-67
2023/03/10 11:11:52;;;;;;;;;1.25;1.25;;;;;10.57;100.00;99559.53;4936260;28;49808;-75
2023/03/10 11:14:36;;;;;;;;;1.00;1.00;;;;;11.02;100.00;99634.00;4951569;28;50056;-67
2023/03/10 11:17:13;;;;;;;;;0.25;0.00;;;;;11.19;100.00;99650.63;4930525;28;50271;-70
2023/03/10 11:19:44;;;;;;;;;0.00;0.00;;;;;11.21;100.00;99659.41;4945017;28;49906;-67
2023/03/10 11:22:26;;;;;;;;;3.25;2.00;;;;;11.03;100.00;99617.34;4928987;28;49748;-69
2023/03/10 11:25:02;;;;;;;;;2.25;1.00;;;;;10.94;100.00;99605.09;4931907;28;50026;-70
2023/03/10 11:27:47;;;;;;;;;3.75;1.00;;;;;10.71;98.39;99542.06;4932658;28;49882;-71
2023/03/10 11:30:12;;;;;;;;;0.50;0.50;;;;;11.45;100.00;99682.16;4932852;28;50052;-69